sensor_id;sensor_type;location;lat;lon;timestamp;temperature;humidity
55026;DHT22;40925;45.666;18.994;2023-04-19T10:17:52;538.00;1587.20
55026;DHT22;40925;45.666;18.994;2023-04-19T10:20:33;537.90;1587.20
55026;DHT22;40925;45.666;18.994;2023-04-19T10:23:05;537.90;1561.60
55026;DHT22;40925;45.666;18.994;2023-04-19T10:25:31;537.80;1587.20
55026;DHT22;40925;45.666;18.994;2023-04-19T10:27:57;537.70;1587.20
55026;DHT22;40925;45.666;18.994;2023-04-19T10:30:24;537.90;1587.20
55026;DHT22;40925;45.666;18.994;2023-04-19T10:32:59;538.00;1536.00
55026;DHT22;40925;45.666;18.994;2023-04-19T10:35:33;537.80;1536.00
55026;DHT22;40925;45.666;18.994;2023-04-19T10:38:13;537.70;1536.00
55026;DHT22;40925;45.666;18.994;2023-04-19T10:43:20;512.70;1561.60
55026;DHT22;40925;45.666;18.994;2023-04-19T10:45:46;512.60;1561.60
55026;DHT22;40925;45.666;18.994;2023-04-19T10:56:19;537.90;1587.20
55026;DHT22;40925;45.666;18.994;2023-04-19T11:04:14;538.00;1561.60
55026;DHT22;40925;45.666;18.994;2023-04-19T11:09:36;538.40;1587.20
55026;DHT22;40925;45.666;18.994;2023-04-19T11:12:14;538.40;1536.00
55026;DHT22;40925;45.666;18.994;2023-04-19T11:34:55;512.50;1612.80
55026;DHT22;40925;45.666;18.994;2023-04-19T11:37:20;512.00;1638.40
55026;DHT22;40925;45.666;18.994;2023-04-19T11:39:46;487.30;1638.40
55026;DHT22;40925;45.666;18.994;2023-04-19T11:42:19;487.20;1638.40
55026;DHT22;40925;45.666;18.994;2023-04-19T11:44:51;487.20;1689.60
55026;DHT22;40925;45.666;18.994;2023-04-19T11:47:17;487.20;1664.00
55026;DHT22;40925;45.666;18.994;2023-04-19T11:49:44;487.20;1664.00
55026;DHT22;40925;45.666;18.994;2023-04-19T11:52:10;487.00;1638.40
55026;DHT22;40925;45.666;18.994;2023-04-19T11:54:36;487.00;1612.80
55026;DHT22;40925;45.666;18.994;2023-04-19T11:57:03;487.20;1612.80
55026;DHT22;40925;45.666;18.994;2023-04-19T11:59:30;487.00;1612.80
55026;DHT22;40925;45.666;18.994;2023-04-19T12:02:06;486.90;1638.40
55026;DHT22;40925;45.666;18.994;2023-04-19T12:04:32;487.00;1612.80
55026;DHT22;40925;45.666;18.994;2023-04-19T12:06:59;487.20;1638.40
55026;DHT22;40925;45.666;18.994;2023-04-19T12:09:25;512.00;1612.80
55026;DHT22;40925;45.666;18.994;2023-04-19T12:11:51;512.10;1587.20
55026;DHT22;40925;45.666;18.994;2023-04-19T12:14:20;512.50;1561.60
55026;DHT22;40925;45.666;18.994;2023-04-19T12:17:06;487.20;1587.20
55026;DHT22;40925;45.666;18.994;2023-04-19T12:19:45;487.20;1612.80
55026;DHT22;40925;45.666;18.994;2023-04-19T12:22:14;487.00;1587.20
55026;DHT22;40925;45.666;18.994;2023-04-19T12:24:41;487.10;1612.80
55026;DHT22;40925;45.666;18.994;2023-04-19T12:27:07;487.20;1587.20
55026;DHT22;40925;45.666;18.994;2023-04-19T12:29:33;487.10;1612.80
55026;DHT22;40925;45.666;18.994;2023-04-19T12:31:59;487.00;1561.60
55026;DHT22;40925;45.666;18.994;2023-04-19T12:34:26;487.00;1587.20
55026;DHT22;40925;45.666;18.994;2023-04-19T12:36:52;486.90;1587.20
55026;DHT22;40925;45.666;18.994;2023-04-19T12:39:18;486.80;1612.80
55026;DHT22;40925;45.666;18.994;2023-04-19T12:41:43;486.70;1587.20
55026;DHT22;40925;45.666;18.994;2023-04-19T12:44:09;486.70;1638.40
55026;DHT22;40925;45.666;18.994;2023-04-19T12:46:35;486.60;1612.80
55026;DHT22;40925;45.666;18.994;2023-04-19T12:49:01;486.50;1587.20
55026;DHT22;40925;45.666;18.994;2023-04-19T12:51:26;486.40;1638.40
55026;DHT22;40925;45.666;18.994;2023-04-19T12:53:53;486.40;1638.40
55026;DHT22;40925;45.666;18.994;2023-04-19T12:56:19;486.40;1664.00
55026;DHT22;40925;45.666;18.994;2023-04-19T12:58:45;486.40;1664.00
55026;DHT22;40925;45.666;18.994;2023-04-19T13:01:11;461.70;1689.60
55026;DHT22;40925;45.666;18.994;2023-04-19T13:03:37;461.60;1715.20
55026;DHT22;40925;45.666;18.994;2023-04-19T13:06:03;461.50;1740.80
55026;DHT22;40925;45.666;18.994;2023-04-19T13:08:29;461.40;1766.40
55026;DHT22;40925;45.666;18.994;2023-04-19T13:10:55;461.40;1740.80
55026;DHT22;40925;45.666;18.994;2023-04-19T13:13:21;461.40;1740.80
55026;DHT22;40925;45.666;18.994;2023-04-19T13:15:46;461.50;1766.40
55026;DHT22;40925;45.666;18.994;2023-04-19T13:18:12;461.50;1792.00
55026;DHT22;40925;45.666;18.994;2023-04-19T13:20:38;461.50;1817.60
55026;DHT22;40925;45.666;18.994;2023-04-19T13:23:04;461.50;1817.60
55026;DHT22;40925;45.666;18.994;2023-04-19T13:25:29;461.60;1817.60
55026;DHT22;40925;45.666;18.994;2023-04-19T13:27:55;461.60;1792.00
55026;DHT22;40925;45.666;18.994;2023-04-19T13:30:21;461.70;1817.60
55026;DHT22;40925;45.666;18.994;2023-04-19T13:32:46;486.40;1817.60
55026;DHT22;40925;45.666;18.994;2023-04-19T13:35:12;486.60;1817.60
55026;DHT22;40925;45.666;18.994;2023-04-19T13:37:38;486.60;1817.60
55026;DHT22;40925;45.666;18.994;2023-04-19T13:40:06;486.60;1817.60
55026;DHT22;40925;45.666;18.994;2023-04-19T13:42:32;486.70;1792.00
55026;DHT22;40925;45.666;18.994;2023-04-19T13:44:57;486.50;1792.00
55026;DHT22;40925;45.666;18.994;2023-04-19T13:47:24;486.40;1843.20
55026;DHT22;40925;45.666;18.994;2023-04-19T13:49:49;461.70;1817.60
55026;DHT22;40925;45.666;18.994;2023-04-19T13:52:19;461.60;1843.20
55026;DHT22;40925;45.666;18.994;2023-04-19T13:54:46;461.60;1894.40
55026;DHT22;40925;45.666;18.994;2023-04-19T13:57:12;461.70;1945.60
55026;DHT22;40925;45.666;18.994;2023-04-19T13:59:37;461.50;1945.60
55026;DHT22;40925;45.666;18.994;2023-04-19T14:02:03;461.50;1945.60
55026;DHT22;40925;45.666;18.994;2023-04-19T14:04:29;461.40;1971.20
55026;DHT22;40925;45.666;18.994;2023-04-19T14:06:55;461.30;1971.20
55026;DHT22;40925;45.666;18.994;2023-04-19T14:09:21;461.30;2022.40
55026;DHT22;40925;45.666;18.994;2023-04-19T14:11:46;461.50;2022.40
55026;DHT22;40925;45.666;18.994;2023-04-19T14:14:14;461.30;2022.40
55026;DHT22;40925;45.666;18.994;2023-04-19T14:16:40;461.40;2022.40
55026;DHT22;40925;45.666;18.994;2023-04-19T14:19:06;461.50;2048.00
55026;DHT22;40925;45.666;18.994;2023-04-19T14:21:32;461.40;1996.80
55026;DHT22;40925;45.666;18.994;2023-04-19T14:23:58;461.70;1996.80
55026;DHT22;40925;45.666;18.994;2023-04-19T14:26:23;461.60;1996.80
55026;DHT22;40925;45.666;18.994;2023-04-19T14:28:49;461.60;1920.00
55026;DHT22;40925;45.666;18.994;2023-04-19T14:31:15;461.60;1843.20
55026;DHT22;40925;45.666;18.994;2023-04-19T14:33:41;461.50;1843.20
55026;DHT22;40925;45.666;18.994;2023-04-19T14:36:07;461.60;1868.80
55026;DHT22;40925;45.666;18.994;2023-04-19T14:38:33;461.70;1868.80
55026;DHT22;40925;45.666;18.994;2023-04-19T14:40:59;461.60;1817.60
55026;DHT22;40925;45.666;18.994;2023-04-19T14:43:25;461.70;1817.60
55026;DHT22;40925;45.666;18.994;2023-04-19T14:45:51;461.70;1792.00
55026;DHT22;40925;45.666;18.994;2023-04-19T14:48:17;461.70;1766.40
55026;DHT22;40925;45.666;18.994;2023-04-19T14:50:44;461.70;1817.60
55026;DHT22;40925;45.666;18.994;2023-04-19T14:53:09;461.70;1792.00
55026;DHT22;40925;45.666;18.994;2023-04-19T14:55:38;461.70;1792.00
55026;DHT22;40925;45.666;18.994;2023-04-19T14:58:04;486.40;1766.40
55026;DHT22;40925;45.666;18.994;2023-04-19T15:00:30;461.70;1766.40
55026;DHT22;40925;45.666;18.994;2023-04-19T15:02:56;461.70;1894.40
55026;DHT22;40925;45.666;18.994;2023-04-19T15:05:24;461.40;2022.40
55026;DHT22;40925;45.666;18.994;2023-04-19T15:07:50;461.30;2099.20
55026;DHT22;40925;45.666;18.994;2023-04-19T15:10:15;461.30;2176.00
55026;DHT22;40925;45.666;18.994;2023-04-19T15:12:41;461.50;2150.40
55026;DHT22;40925;45.666;18.994;2023-04-19T15:15:07;461.70;1971.20
55026;DHT22;40925;45.666;18.994;2023-04-19T15:17:33;461.60;2048.00
55026;DHT22;40925;45.666;18.994;2023-04-19T15:19:58;486.40;2124.80
55026;DHT22;40925;45.666;18.994;2023-04-19T15:22:24;486.50;2150.40
55026;DHT22;40925;45.666;18.994;2023-04-19T15:24:50;486.40;2124.80
55026;DHT22;40925;45.666;18.994;2023-04-19T15:27:16;486.40;2073.60
55026;DHT22;40925;45.666;18.994;2023-04-19T15:29:42;461.70;2022.40
55026;DHT22;40925;45.666;18.994;2023-04-19T15:32:07;461.60;2048.00
55026;DHT22;40925;45.666;18.994;2023-04-19T15:34:33;486.40;2073.60
55026;DHT22;40925;45.666;18.994;2023-04-19T15:36:59;486.40;2022.40
55026;DHT22;40925;45.666;18.994;2023-04-19T15:39:26;461.60;2048.00
55026;DHT22;40925;45.666;18.994;2023-04-19T15:41:51;461.30;2048.00
55026;DHT22;40925;45.666;18.994;2023-04-19T15:44:17;461.30;1996.80
55026;DHT22;40925;45.666;18.994;2023-04-19T15:46:43;461.20;2048.00
55026;DHT22;40925;45.666;18.994;2023-04-19T15:49:08;461.20;2022.40
55026;DHT22;40925;45.666;18.994;2023-04-19T15:51:34;461.30;1996.80
55026;DHT22;40925;45.666;18.994;2023-04-19T15:54:00;461.40;1996.80
55026;DHT22;40925;45.666;18.994;2023-04-19T15:56:26;461.60;1996.80
55026;DHT22;40925;45.666;18.994;2023-04-19T15:59:07;461.50;1996.80
55026;DHT22;40925;45.666;18.994;2023-04-19T16:01:32;461.40;1971.20
55026;DHT22;40925;45.666;18.994;2023-04-19T16:03:58;461.40;1971.20
55026;DHT22;40925;45.666;18.994;2023-04-19T16:06:24;461.40;1971.20
55026;DHT22;40925;45.666;18.994;2023-04-19T16:08:49;461.40;1894.40
55026;DHT22;40925;45.666;18.994;2023-04-19T16:11:15;461.50;1868.80
55026;DHT22;40925;45.666;18.994;2023-04-19T16:13:41;461.50;1868.80
55026;DHT22;40925;45.666;18.994;2023-04-19T16:16:07;461.40;1894.40
55026;DHT22;40925;45.666;18.994;2023-04-19T16:18:32;461.40;1894.40
55026;DHT22;40925;45.666;18.994;2023-04-19T16:20:58;461.40;1920.00
55026;DHT22;40925;45.666;18.994;2023-04-19T16:23:24;461.30;1920.00
55026;DHT22;40925;45.666;18.994;2023-04-19T16:25:49;461.30;1945.60
55026;DHT22;40925;45.666;18.994;2023-04-19T16:28:15;461.20;1945.60
55026;DHT22;40925;45.666;18.994;2023-04-19T16:30:44;461.30;1971.20
55026;DHT22;40925;45.666;18.994;2023-04-19T16:33:10;461.20;1996.80
55026;DHT22;40925;45.666;18.994;2023-04-19T16:35:36;461.20;1996.80
55026;DHT22;40925;45.666;18.994;2023-04-19T16:38:02;461.20;2022.40
55026;DHT22;40925;45.666;18.994;2023-04-19T16:40:28;461.00;2022.40
55026;DHT22;40925;45.666;18.994;2023-04-19T16:42:54;460.80;2124.80
55026;DHT22;40925;45.666;18.994;2023-04-19T16:45:20;436.00;2150.40
55026;DHT22;40925;45.666;18.994;2023-04-19T16:47:46;435.80;2201.60
55026;DHT22;40925;45.666;18.994;2023-04-19T16:50:12;435.50;2329.60
55026;DHT22;40925;45.666;18.994;2023-04-19T16:52:39;435.50;2355.20
55026;DHT22;40925;45.666;18.994;2023-04-19T16:55:05;435.40;2355.20
55026;DHT22;40925;45.666;18.994;2023-04-19T16:57:31;435.30;2355.20
55026;DHT22;40925;45.666;18.994;2023-04-19T16:59:57;410.50;2355.20
55026;DHT22;40925;45.666;18.994;2023-04-19T17:02:23;410.50;2355.20
55026;DHT22;40925;45.666;18.994;2023-04-19T17:04:49;410.40;2355.20
55026;DHT22;40925;45.666;18.994;2023-04-19T17:07:15;410.50;2355.20
55026;DHT22;40925;45.666;18.994;2023-04-19T17:09:40;410.50;2355.20
55026;DHT22;40925;45.666;18.994;2023-04-19T17:12:06;410.50;2355.20
55026;DHT22;40925;45.666;18.994;2023-04-19T17:14:35;410.40;2355.20
55026;DHT22;40925;45.666;18.994;2023-04-19T17:17:01;410.30;2355.20
55026;DHT22;40925;45.666;18.994;2023-04-19T17:19:27;410.10;2355.20
55026;DHT22;40925;45.666;18.994;2023-04-19T17:21:52;410.00;2355.20
55026;DHT22;40925;45.666;18.994;2023-04-19T17:24:18;409.90;2355.20
55026;DHT22;40925;45.666;18.994;2023-04-19T17:26:44;409.90;2355.20
55026;DHT22;40925;45.666;18.994;2023-04-19T17:29:09;409.80;2355.20
55026;DHT22;40925;45.666;18.994;2023-04-19T17:31:35;409.90;2355.20
55026;DHT22;40925;45.666;18.994;2023-04-19T17:34:01;409.80;2355.20
55026;DHT22;40925;45.666;18.994;2023-04-19T17:36:27;409.70;2355.20
55026;DHT22;40925;45.666;18.994;2023-04-19T17:38:53;409.60;2355.20
55026;DHT22;40925;45.666;18.994;2023-04-19T17:41:19;409.60;2355.20
55026;DHT22;40925;45.666;18.994;2023-04-19T17:43:45;384.90;2329.60
55026;DHT22;40925;45.666;18.994;2023-04-19T17:46:13;384.80;2329.60
55026;DHT22;40925;45.666;18.994;2023-04-19T17:48:39;384.80;2329.60
55026;DHT22;40925;45.666;18.994;2023-04-19T17:51:05;384.70;2329.60
55026;DHT22;40925;45.666;18.994;2023-04-19T17:53:31;384.70;2329.60
55026;DHT22;40925;45.666;18.994;2023-04-19T17:55:57;384.50;2329.60
55026;DHT22;40925;45.666;18.994;2023-04-19T17:58:23;384.50;2329.60
55026;DHT22;40925;45.666;18.994;2023-04-19T18:00:49;384.40;2329.60
55026;DHT22;40925;45.666;18.994;2023-04-19T18:03:14;384.30;2329.60
55026;DHT22;40925;45.666;18.994;2023-04-19T18:05:40;384.30;2329.60
55026;DHT22;40925;45.666;18.994;2023-04-19T18:08:08;384.30;2329.60
55026;DHT22;40925;45.666;18.994;2023-04-19T18:10:34;384.20;2329.60
55026;DHT22;40925;45.666;18.994;2023-04-19T18:13:00;384.20;2329.60
55026;DHT22;40925;45.666;18.994;2023-04-19T18:15:25;384.20;2329.60
55026;DHT22;40925;45.666;18.994;2023-04-19T18:17:51;384.20;2329.60
55026;DHT22;40925;45.666;18.994;2023-04-19T18:20:18;384.10;2329.60
55026;DHT22;40925;45.666;18.994;2023-04-19T18:22:47;384.40;2329.60
55026;DHT22;40925;45.666;18.994;2023-04-19T18:25:13;384.20;2329.60
55026;DHT22;40925;45.666;18.994;2023-04-19T18:27:39;384.20;2329.60
55026;DHT22;40925;45.666;18.994;2023-04-19T18:40:59;384.20;2329.60
55026;DHT22;40925;45.666;18.994;2023-04-19T18:43:25;359.30;2329.60
55026;DHT22;40925;45.666;18.994;2023-04-19T18:46:11;359.20;2329.60
55026;DHT22;40925;45.666;18.994;2023-04-19T18:48:36;359.10;2329.60
55026;DHT22;40925;45.666;18.994;2023-04-19T18:51:02;359.10;2329.60
55026;DHT22;40925;45.666;18.994;2023-04-19T18:53:28;359.10;2329.60
55026;DHT22;40925;45.666;18.994;2023-04-19T18:55:55;359.10;2329.60
55026;DHT22;40925;45.666;18.994;2023-04-19T18:58:25;359.00;2329.60
55026;DHT22;40925;45.666;18.994;2023-04-19T19:00:52;359.00;2329.60
55026;DHT22;40925;45.666;18.994;2023-04-19T19:03:19;359.00;2329.60
55026;DHT22;40925;45.666;18.994;2023-04-19T19:05:45;359.00;2329.60
55026;DHT22;40925;45.666;18.994;2023-04-19T19:08:11;359.00;2329.60
55026;DHT22;40925;45.666;18.994;2023-04-19T19:10:37;358.90;2329.60
55026;DHT22;40925;45.666;18.994;2023-04-19T19:13:02;358.90;2329.60
55026;DHT22;40925;45.666;18.994;2023-04-19T19:15:28;358.90;2329.60
55026;DHT22;40925;45.666;18.994;2023-04-19T19:17:54;358.90;2329.60
55026;DHT22;40925;45.666;18.994;2023-04-19T19:20:20;358.90;2329.60
55026;DHT22;40925;45.666;18.994;2023-04-19T19:22:45;358.90;2329.60
55026;DHT22;40925;45.666;18.994;2023-04-19T19:25:11;358.90;2329.60
55026;DHT22;40925;45.666;18.994;2023-04-19T19:27:37;358.90;2329.60
55026;DHT22;40925;45.666;18.994;2023-04-19T19:30:04;358.80;2329.60
55026;DHT22;40925;45.666;18.994;2023-04-19T19:32:32;358.80;2329.60
55026;DHT22;40925;45.666;18.994;2023-04-19T19:34:57;358.80;2329.60
55026;DHT22;40925;45.666;18.994;2023-04-19T19:37:24;359.20;2329.60
55026;DHT22;40925;45.666;18.994;2023-04-19T19:39:50;358.80;2329.60
55026;DHT22;40925;45.666;18.994;2023-04-19T19:42:17;358.90;2329.60
55026;DHT22;40925;45.666;18.994;2023-04-19T19:44:43;358.70;2329.60
55026;DHT22;40925;45.666;18.994;2023-04-19T19:47:08;358.70;2329.60
55026;DHT22;40925;45.666;18.994;2023-04-19T19:49:34;358.70;2329.60
55026;DHT22;40925;45.666;18.994;2023-04-19T19:52:00;358.70;2329.60
55026;DHT22;40925;45.666;18.994;2023-04-19T19:54:26;358.60;2329.60
55026;DHT22;40925;45.666;18.994;2023-04-19T19:59:17;358.70;2329.60
55026;DHT22;40925;45.666;18.994;2023-04-19T20:01:43;358.60;2329.60
55026;DHT22;40925;45.666;18.994;2023-04-19T20:04:08;358.50;2329.60
